createdAt,value
2018-04-07T00:00:27.394Z,52.91
2018-04-07T00:01:27.403Z,53.11
2018-04-07T00:02:27.431Z,53.29
2018-04-07T00:03:27.389Z,53.26
2018-04-07T00:04:27.397Z,53.23
2018-04-07T00:05:27.407Z,53.13
2018-04-07T00:06:27.399Z,53.17
2018-04-07T00:07:27.408Z,53.4
2018-04-07T00:08:27.398Z,53.5
2018-04-07T00:09:27.404Z,53.26
2018-04-07T00:10:27.406Z,53.25
2018-04-07T00:11:27.394Z,53.47
2018-04-07T00:12:27.679Z,53.59
2018-04-07T00:13:27.399Z,53.73
2018-04-07T00:14:27.421Z,53.82
2018-04-07T00:15:27.465Z,53.87
2018-04-07T00:16:27.400Z,53.66
2018-04-07T00:17:27.424Z,53.77
2018-04-07T00:18:27.401Z,53.89
2018-04-07T00:19:27.423Z,53.63
2018-04-07T00:20:27.414Z,53.68
2018-04-07T00:21:27.407Z,53.77
2018-04-07T00:22:27.702Z,54.15
2018-04-07T00:23:27.413Z,54.22
2018-04-07T00:24:27.410Z,54.16
2018-04-07T00:25:27.394Z,54.01
2018-04-07T00:26:27.403Z,53.86
2018-04-07T00:27:27.430Z,54.11
2018-04-07T00:28:27.407Z,54.14
2018-04-07T00:29:27.421Z,54.41
2018-04-07T00:30:27.418Z,54.01
2018-04-07T00:31:27.414Z,53.87
2018-04-07T00:32:27.446Z,54.56
2018-04-07T00:33:27.399Z,54.05
2018-04-07T00:34:27.437Z,54.27
2018-04-07T00:35:27.430Z,54.75
2018-04-07T00:36:27.410Z,54.45
2018-04-07T00:37:27.581Z,54.53
2018-04-07T00:38:27.402Z,54.4
2018-04-07T00:39:27.405Z,54.37
2018-04-07T00:40:27.410Z,54.49
2018-04-07T00:41:27.407Z,54.42
2018-04-07T00:42:27.438Z,54.3
2018-04-07T00:43:27.410Z,54.58
2018-04-07T00:44:27.423Z,54.85
2018-04-07T00:45:27.417Z,54.82
2018-04-07T00:46:27.468Z,54.53
2018-04-07T00:47:27.450Z,54.38
2018-04-07T00:48:27.455Z,55.03
2018-04-07T00:49:27.425Z,54.91
2018-04-07T00:50:27.418Z,54.89
2018-04-07T00:51:27.419Z,54.96
2018-04-07T00:52:27.412Z,55.17
2018-04-07T00:53:27.413Z,55.11
2018-04-07T00:54:27.435Z,55.09
2018-04-07T00:55:27.435Z,55.14
2018-04-07T00:56:27.420Z,55.41
2018-04-07T00:57:27.429Z,55.49
2018-04-07T00:58:27.418Z,54.97
2018-04-07T00:59:27.430Z,55.24
2018-04-07T01:00:27.448Z,55.13
2018-04-07T01:01:27.464Z,55.17
2018-04-07T01:02:27.460Z,55.08
2018-04-07T01:03:27.425Z,55.34
2018-04-07T01:04:27.438Z,55.18
2018-04-07T01:05:27.434Z,55.27
2018-04-07T01:06:27.479Z,55.34
2018-04-07T01:07:27.452Z,55.65
2018-04-07T01:08:27.445Z,55.23
2018-04-07T01:09:27.442Z,55.52
2018-04-07T01:10:27.473Z,55.84
2018-04-07T01:11:27.470Z,55.44
2018-04-07T01:12:27.447Z,55.51
2018-04-07T01:13:27.443Z,56.06
2018-04-07T01:14:27.443Z,55.63
2018-04-07T01:15:27.449Z,55.6
2018-04-07T01:16:27.470Z,55.46
2018-04-07T01:17:27.511Z,55.55
2018-04-07T01:18:27.456Z,55.46
2018-04-07T01:19:27.487Z,56.01
2018-04-07T01:20:27.431Z,55.91
2018-04-07T01:21:27.463Z,55.5
2018-04-07T01:22:27.456Z,55.56
2018-04-07T01:23:27.448Z,55.69
2018-04-07T01:24:27.569Z,55.56
2018-04-07T01:25:27.460Z,55.63
2018-04-07T01:26:27.455Z,55.71
2018-04-07T01:27:27.437Z,56.17
2018-04-07T01:28:27.439Z,56.15
2018-04-07T01:29:27.465Z,56.01
2018-04-07T01:30:27.445Z,55.74
2018-04-07T01:31:27.440Z,55.93
2018-04-07T01:32:27.442Z,55.78
2018-04-07T01:33:27.463Z,55.82
2018-04-07T01:34:27.472Z,55.78
2018-04-07T01:35:27.450Z,56.12
2018-04-07T01:36:27.449Z,55.79
2018-04-07T01:37:27.469Z,55.56
2018-04-07T01:38:27.437Z,56.11
2018-04-07T01:39:27.469Z,56.23
2018-04-07T01:40:27.446Z,56.44
2018-04-07T01:41:27.468Z,56.34
2018-04-07T01:42:27.438Z,56.24
2018-04-07T01:43:27.442Z,56.31
2018-04-07T01:44:27.450Z,56.56
2018-04-07T01:45:27.443Z,56.29
2018-04-07T01:46:27.448Z,56.65
2018-04-07T01:47:27.459Z,56.62
2018-04-07T01:48:27.489Z,56.33
2018-04-07T01:49:27.470Z,56.56
2018-04-07T01:50:27.491Z,56.53
2018-04-07T01:51:27.462Z,56.3
2018-04-07T01:52:27.444Z,56.65
2018-04-07T01:53:27.463Z,56.58
2018-04-07T01:54:27.462Z,56.57
2018-04-07T01:55:27.479Z,56.58
2018-04-07T01:56:27.473Z,56.53
2018-04-07T01:57:27.472Z,56.91
2018-04-07T01:58:27.457Z,56.85
2018-04-07T01:59:27.462Z,57.02
2018-04-07T02:00:27.612Z,57.33
2018-04-07T02:01:27.471Z,56.94
2018-04-07T02:02:27.456Z,57.06
2018-04-07T02:03:27.465Z,56.86
2018-04-07T02:04:27.466Z,56.99
2018-04-07T02:05:27.466Z,57.04
2018-04-07T02:06:27.455Z,57.18
2018-04-07T02:07:27.452Z,57.38
2018-04-07T02:08:27.478Z,57.28
2018-04-07T02:09:27.448Z,57.3
2018-04-07T02:10:27.445Z,56.93
2018-04-07T02:11:27.446Z,57.23
2018-04-07T02:12:27.454Z,57.21
2018-04-07T02:13:27.472Z,57.49
2018-04-07T02:14:27.519Z,57.17
2018-04-07T02:15:27.457Z,57.07
2018-04-07T02:16:27.456Z,56.98
2018-04-07T02:17:27.453Z,57.18
2018-04-07T02:18:27.460Z,57.28
2018-04-07T02:19:27.520Z,57.45
2018-04-07T02:20:27.467Z,57.52
2018-04-07T02:21:27.457Z,57.12
2018-04-07T02:22:27.460Z,57.35
2018-04-07T02:23:27.478Z,57.41
2018-04-07T02:24:27.469Z,57.36
2018-04-07T02:25:27.460Z,57.46
2018-04-07T02:26:27.457Z,57.51
2018-04-07T02:27:27.462Z,57.4
2018-04-07T02:28:27.481Z,57.54
2018-04-07T02:29:27.464Z,57.62
2018-04-07T02:30:27.468Z,57.42
2018-04-07T02:31:27.456Z,57.49
2018-04-07T02:32:27.474Z,57.61
2018-04-07T02:33:27.465Z,57.72
2018-04-07T02:34:27.562Z,57.73
2018-04-07T02:35:27.458Z,57.84
2018-04-07T02:36:27.482Z,57.74
2018-04-07T02:37:27.469Z,57.58
2018-04-07T02:38:27.485Z,57.81
2018-04-07T02:39:27.502Z,57.74
2018-04-07T02:40:27.462Z,57.82
2018-04-07T02:41:27.456Z,57.95
2018-04-07T02:42:27.480Z,57.85
2018-04-07T02:43:27.480Z,57.86
2018-04-07T02:44:27.464Z,57.93
2018-04-07T02:45:27.498Z,57.85
2018-04-07T02:46:27.463Z,57.91
2018-04-07T02:47:27.464Z,57.83
2018-04-07T02:48:27.465Z,57.9
2018-04-07T02:49:27.558Z,57.96
2018-04-07T02:50:27.558Z,57.84
2018-04-07T02:51:27.469Z,57.91
2018-04-07T02:52:27.471Z,57.93
2018-04-07T02:53:27.476Z,58.04
2018-04-07T02:54:27.500Z,57.9
2018-04-07T02:55:27.635Z,57.88
2018-04-07T02:56:27.470Z,57.75
2018-04-07T02:57:27.460Z,57.91
2018-04-07T02:58:27.460Z,58.04
2018-04-07T02:59:27.489Z,57.77
2018-04-07T03:00:27.470Z,57.86
2018-04-07T03:01:27.468Z,57.83
2018-04-07T03:02:27.473Z,57.99
2018-04-07T03:03:27.472Z,58.05
2018-04-07T03:04:27.498Z,57.78
2018-04-07T03:05:27.498Z,57.78
2018-04-07T03:06:27.491Z,57.69
2018-04-07T03:07:27.472Z,57.95
2018-04-07T03:08:27.470Z,57.72
2018-04-07T03:09:27.498Z,57.84
2018-04-07T03:10:27.475Z,57.68
2018-04-07T03:11:27.470Z,57.89
2018-04-07T03:12:27.464Z,57.89
2018-04-07T03:13:27.467Z,57.81
2018-04-07T03:14:27.465Z,57.86
2018-04-07T03:15:27.650Z,57.81
2018-04-07T03:16:27.486Z,57.83
2018-04-07T03:17:27.475Z,57.5
2018-04-07T03:18:27.470Z,57.98
2018-04-07T03:19:27.477Z,57.87
2018-04-07T03:20:27.494Z,57.84
2018-04-07T03:21:27.524Z,57.86
2018-04-07T03:22:27.470Z,57.88
2018-04-07T03:23:27.470Z,57.87
2018-04-07T03:24:27.489Z,58.08
2018-04-07T03:25:27.487Z,58.02
2018-04-07T03:26:27.476Z,58.25
2018-04-07T03:27:27.496Z,58.12
2018-04-07T03:28:27.480Z,58.11
2018-04-07T03:29:27.489Z,58.11
2018-04-07T03:30:27.506Z,58.19
2018-04-07T03:31:27.484Z,58.52
2018-04-07T03:32:27.478Z,58.39
2018-04-07T03:33:27.481Z,58.29
2018-04-07T03:34:27.504Z,58.35
2018-04-07T03:35:27.499Z,58.14
2018-04-07T03:36:27.486Z,58.45
2018-04-07T03:37:27.478Z,58.44
2018-04-07T03:38:27.483Z,58.19
2018-04-07T03:39:27.475Z,58.46
2018-04-07T03:40:27.503Z,58.5
2018-04-07T03:41:27.845Z,58.45
2018-04-07T03:42:27.481Z,58.32
2018-04-07T03:43:27.474Z,58.33
2018-04-07T03:44:27.485Z,58.57
2018-04-07T03:45:27.546Z,58.49
2018-04-07T03:46:27.521Z,58.59
2018-04-07T03:47:27.480Z,58.5
2018-04-07T03:48:27.490Z,58.76
2018-04-07T03:49:27.487Z,58.67
2018-04-07T03:50:27.530Z,58.62
2018-04-07T03:51:27.510Z,58.31
2018-04-07T03:52:27.536Z,58.57
2018-04-07T03:53:27.498Z,58.67
2018-04-07T03:54:27.496Z,58.54
2018-04-07T03:55:27.493Z,58.68
2018-04-07T03:56:27.532Z,58.76
2018-04-07T03:57:27.512Z,58.63
2018-04-07T03:58:27.495Z,58.73
2018-04-07T03:59:27.488Z,58.48
2018-04-07T04:00:27.504Z,58.81
2018-04-07T04:01:27.523Z,58.71
2018-04-07T04:02:27.506Z,58.66
2018-04-07T04:03:27.517Z,58.51
2018-04-07T04:04:27.498Z,58.68
2018-04-07T04:05:27.517Z,58.8
2018-04-07T04:06:27.531Z,58.69
2018-04-07T04:07:27.499Z,58.58
2018-04-07T04:08:27.493Z,58.62
2018-04-07T04:09:27.490Z,58.64
2018-04-07T04:10:27.494Z,58.66
2018-04-07T04:11:27.527Z,58.96
2018-04-07T04:12:27.489Z,59.16
2018-04-07T04:13:27.502Z,58.92
2018-04-07T04:14:27.486Z,58.74
2018-04-07T04:15:27.503Z,59.04
2018-04-07T04:16:27.528Z,58.93
2018-04-07T04:17:27.524Z,59.08
2018-04-07T04:18:27.501Z,59.16
2018-04-07T04:19:27.520Z,59.16
2018-04-07T04:20:27.505Z,59.19
2018-04-07T04:21:27.524Z,59.29
2018-04-07T04:22:27.552Z,59.45
2018-04-07T04:23:27.572Z,59.53
2018-04-07T04:24:27.505Z,59.61
2018-04-07T04:25:27.503Z,59.81
2018-04-07T04:26:27.521Z,59.78
2018-04-07T04:27:27.519Z,59.9
2018-04-07T04:28:27.499Z,59.84
2018-04-07T04:29:27.517Z,59.92
2018-04-07T04:30:27.505Z,59.99
2018-04-07T04:31:27.501Z,59.93
2018-04-07T04:32:27.526Z,60.14
2018-04-07T04:33:27.541Z,60.27
2018-04-07T04:34:27.518Z,60.05
2018-04-07T04:35:27.532Z,60.06
2018-04-07T04:36:27.497Z,60.17
2018-04-07T04:37:27.507Z,60.39
2018-04-07T04:38:27.503Z,60.37
2018-04-07T04:39:27.507Z,60.27
2018-04-07T04:40:27.497Z,60.74
2018-04-07T04:41:27.557Z,60.43
2018-04-07T04:42:27.536Z,60.54
2018-04-07T04:43:27.504Z,60.62
2018-04-07T04:44:27.505Z,60.45
2018-04-07T04:45:27.514Z,60.54
2018-04-07T04:46:27.500Z,60.56
2018-04-07T04:47:27.581Z,60.74
2018-04-07T04:48:27.529Z,60.78
2018-04-07T04:49:27.516Z,60.62
2018-04-07T04:50:27.503Z,60.65
2018-04-07T04:51:27.502Z,60.78
2018-04-07T04:52:27.545Z,60.6
2018-04-07T04:53:27.511Z,60.82
2018-04-07T04:54:27.576Z,60.64
2018-04-07T04:55:27.508Z,60.74
2018-04-07T04:56:27.503Z,60.89
2018-04-07T04:57:27.852Z,60.78
2018-04-07T04:58:27.519Z,60.89
2018-04-07T04:59:27.543Z,61.08
2018-04-07T05:00:27.527Z,60.88
2018-04-07T05:01:27.518Z,61.01
2018-04-07T05:02:27.532Z,61.11
2018-04-07T05:03:27.503Z,61.11
2018-04-07T05:04:27.521Z,61.26
2018-04-07T05:05:27.512Z,61.22
2018-04-07T05:06:27.510Z,61.12
2018-04-07T05:07:27.516Z,61.05
2018-04-07T05:08:27.520Z,61.14
2018-04-07T05:09:27.515Z,61.18
2018-04-07T05:10:27.517Z,61.4
2018-04-07T05:11:27.526Z,61.31
2018-04-07T05:12:27.513Z,61.45
2018-04-07T05:13:27.560Z,61.54
2018-04-07T05:14:27.533Z,61.57
2018-04-07T05:15:27.535Z,61.64
2018-04-07T05:16:27.530Z,61.6
2018-04-07T05:17:27.528Z,61.68
2018-04-07T05:18:27.527Z,61.76
2018-04-07T05:19:27.523Z,61.89
2018-04-07T05:20:27.525Z,61.79
2018-04-07T05:21:27.523Z,61.84
2018-04-07T05:22:27.535Z,61.81
2018-04-07T05:23:27.549Z,61.78
2018-04-07T05:24:27.527Z,61.73
2018-04-07T05:25:27.586Z,61.68
2018-04-07T05:26:27.527Z,61.84
2018-04-07T05:27:27.519Z,61.86
2018-04-07T05:28:27.546Z,61.88
2018-04-07T05:29:27.540Z,61.85
2018-04-07T05:30:27.535Z,62.1
2018-04-07T05:31:27.538Z,62.11
2018-04-07T05:32:27.537Z,61.94
2018-04-07T05:33:27.553Z,61.87
2018-04-07T05:34:27.541Z,61.85
2018-04-07T05:35:27.534Z,61.99
2018-04-07T05:36:27.544Z,62.03
2018-04-07T05:37:27.546Z,62.01
2018-04-07T05:38:27.561Z,61.93
2018-04-07T05:39:27.533Z,61.88
2018-04-07T05:40:27.549Z,61.97
2018-04-07T05:41:27.549Z,61.9
2018-04-07T05:42:27.530Z,61.9
2018-04-07T05:43:27.582Z,62.01
2018-04-07T05:44:27.539Z,61.82
2018-04-07T05:45:27.532Z,61.91
2018-04-07T05:46:27.564Z,62.11
2018-04-07T05:47:27.551Z,62.06
2018-04-07T05:48:27.566Z,62.15
2018-04-07T05:49:27.550Z,62.05
2018-04-07T05:50:27.527Z,62.04
2018-04-07T05:51:27.554Z,62.05
2018-04-07T05:52:27.544Z,61.74
2018-04-07T05:53:27.563Z,62.01
2018-04-07T05:54:27.532Z,61.81
2018-04-07T05:55:27.540Z,61.91
2018-04-07T05:56:27.674Z,61.81
2018-04-07T05:57:27.535Z,61.89
2018-04-07T05:58:27.568Z,61.71
2018-04-07T05:59:27.545Z,61.85
2018-04-07T06:00:27.544Z,62.02
2018-04-07T06:01:27.547Z,61.83
2018-04-07T06:02:27.552Z,61.87
2018-04-07T06:03:27.569Z,61.62
2018-04-07T06:04:27.551Z,61.89
2018-04-07T06:05:27.538Z,61.93
2018-04-07T06:06:27.548Z,61.91
2018-04-07T06:07:27.543Z,61.73
2018-04-07T06:08:27.826Z,61.83
2018-04-07T06:09:27.555Z,61.71
2018-04-07T06:10:27.559Z,61.6
2018-04-07T06:11:27.546Z,61.62
2018-04-07T06:12:27.547Z,61.48
2018-04-07T06:13:27.582Z,61.73
2018-04-07T06:14:27.557Z,61.5
2018-04-07T06:15:27.541Z,61.58
2018-04-07T06:16:27.559Z,61.63
2018-04-07T06:17:27.550Z,61.57
2018-04-07T06:18:27.552Z,61.55
2018-04-07T06:19:27.592Z,61.52
2018-04-07T06:20:27.547Z,61.55
2018-04-07T06:21:27.582Z,61.41
2018-04-07T06:22:27.552Z,61.57
2018-04-07T06:23:27.549Z,61.59
2018-04-07T06:24:27.576Z,61.65
2018-04-07T06:25:27.550Z,61.48
2018-04-07T06:26:27.554Z,61.44
2018-04-07T06:27:27.654Z,61.44
2018-04-07T06:28:27.584Z,61.45
2018-04-07T06:29:27.556Z,61.13
2018-04-07T06:30:27.547Z,61.04
2018-04-07T06:31:27.579Z,61.28
2018-04-07T06:32:27.552Z,61.16
2018-04-07T06:33:27.569Z,61.14
2018-04-07T06:34:27.577Z,60.85
2018-04-07T06:35:27.538Z,60.89
2018-04-07T06:36:27.556Z,61.2
2018-04-07T06:37:27.550Z,61.21
2018-04-07T06:38:27.546Z,60.91
2018-04-07T06:39:27.585Z,60.82
2018-04-07T06:40:27.546Z,60.56
2018-04-07T06:41:27.556Z,60.72
2018-04-07T06:42:27.551Z,60.79
2018-04-07T06:43:27.553Z,60.8
2018-04-07T06:44:27.554Z,60.6
2018-04-07T06:45:27.572Z,60.81
2018-04-07T06:46:27.557Z,60.59
2018-04-07T06:47:27.550Z,60.79
2018-04-07T06:48:27.728Z,60.61
2018-04-07T06:49:27.559Z,60.31
2018-04-07T06:50:27.567Z,60.24
2018-04-07T06:51:27.561Z,60.27
2018-04-07T06:52:27.566Z,60.33
2018-04-07T06:53:27.570Z,60.56
2018-04-07T06:54:27.555Z,60.53
2018-04-07T06:55:27.563Z,60.53
2018-04-07T06:56:27.569Z,60.44
2018-04-07T06:57:27.557Z,60.49
2018-04-07T06:58:27.633Z,60.3
2018-04-07T06:59:27.674Z,60.41
2018-04-07T07:00:27.568Z,60.34
2018-04-07T07:01:27.564Z,60.15
2018-04-07T07:02:27.581Z,60.38
2018-04-07T07:03:27.549Z,60.15
2018-04-07T07:04:27.565Z,60.22
2018-04-07T07:05:27.556Z,59.72
2018-04-07T07:06:27.563Z,60.05
2018-04-07T07:07:27.563Z,59.93
2018-04-07T07:08:27.600Z,59.9
2018-04-07T07:09:27.558Z,59.73
2018-04-07T07:10:27.564Z,59.58
2018-04-07T07:11:27.563Z,59.66
2018-04-07T07:12:27.563Z,59.82
2018-04-07T07:13:27.579Z,59.83
2018-04-07T07:14:27.556Z,59.41
2018-04-07T07:15:27.562Z,59.94
2018-04-07T07:16:27.565Z,59.36
2018-04-07T07:17:27.557Z,59.45
2018-04-07T07:18:27.584Z,59.32
2018-04-07T07:19:27.572Z,59.69
2018-04-07T07:20:27.559Z,59.71
2018-04-07T07:21:27.570Z,59.22
2018-04-07T07:22:27.569Z,59.2
2018-04-07T07:23:27.574Z,59.11
2018-04-07T07:24:27.577Z,59.14
2018-04-07T07:25:27.576Z,59.17
2018-04-07T07:26:27.585Z,58.69
2018-04-07T07:27:27.573Z,58.69
2018-04-07T07:28:27.570Z,58.59
2018-04-07T07:29:27.618Z,58.86
2018-04-07T07:30:27.578Z,58.82
2018-04-07T07:31:27.582Z,58.81
2018-04-07T07:32:27.574Z,58.78
2018-04-07T07:33:27.573Z,58.5
2018-04-07T07:34:27.567Z,58.39
2018-04-07T07:35:27.564Z,58.58
2018-04-07T07:36:27.622Z,58.68
2018-04-07T07:37:27.582Z,58.32
2018-04-07T07:38:27.588Z,58.63
2018-04-07T07:39:27.581Z,58.72
2018-04-07T07:40:27.575Z,58.8
2018-04-07T07:41:27.581Z,58.39
2018-04-07T07:42:27.572Z,58.51
2018-04-07T07:43:27.599Z,58.63
2018-04-07T07:44:27.585Z,58.32
2018-04-07T07:45:27.581Z,58.22
2018-04-07T07:46:27.576Z,57.99
2018-04-07T07:47:27.579Z,57.85
2018-04-07T07:48:27.713Z,58.25
2018-04-07T07:49:27.579Z,58.35
2018-04-07T07:50:27.580Z,57.77
2018-04-07T07:51:27.575Z,57.66
2018-04-07T07:52:27.587Z,57.97
2018-04-07T07:53:27.584Z,57.56
2018-04-07T07:54:27.575Z,57.83
2018-04-07T07:55:27.574Z,57.6
2018-04-07T07:56:27.587Z,57.52
2018-04-07T07:57:27.583Z,57.14
2018-04-07T07:58:27.973Z,57.38
2018-04-07T07:59:27.594Z,57.16
2018-04-07T08:00:27.637Z,57.3
2018-04-07T08:01:27.607Z,56.7
2018-04-07T08:02:27.593Z,56.89
2018-04-07T08:03:27.611Z,56.57
2018-04-07T08:04:27.582Z,56.5
2018-04-07T08:05:27.583Z,56.32
2018-04-07T08:06:27.582Z,56.78
2018-04-07T08:07:27.583Z,56.51
2018-04-07T08:08:27.585Z,56.34
2018-04-07T08:09:27.818Z,56.47
2018-04-07T08:10:27.580Z,56.91
2018-04-07T08:11:27.591Z,56.66
2018-04-07T08:12:27.585Z,56.64
2018-04-07T08:13:27.597Z,56.54
2018-04-07T08:14:27.606Z,56.26
2018-04-07T08:15:27.583Z,56.36
2018-04-07T08:16:27.584Z,56.52
2018-04-07T08:17:27.589Z,56.88
2018-04-07T08:18:27.586Z,56.71
2018-04-07T08:19:27.584Z,56.61
2018-04-07T08:20:27.861Z,56.7
2018-04-07T08:21:27.580Z,56.26
2018-04-07T08:22:27.593Z,56.25
2018-04-07T08:23:27.587Z,56.32
2018-04-07T08:24:27.593Z,56.34
2018-04-07T08:25:27.610Z,56.1
2018-04-07T08:26:27.592Z,55.67
2018-04-07T08:27:27.657Z,56.07
2018-04-07T08:28:27.597Z,55.92
2018-04-07T08:29:27.580Z,55.74
2018-04-07T08:30:27.593Z,55.86
2018-04-07T08:31:27.833Z,55.73
2018-04-07T08:32:27.604Z,55.61
2018-04-07T08:33:27.594Z,55.75
2018-04-07T08:34:27.755Z,55.96
2018-04-07T08:35:27.588Z,55.69
2018-04-07T08:36:27.615Z,55.93
2018-04-07T08:37:27.593Z,55.33
2018-04-07T08:38:27.586Z,55.24
2018-04-07T08:39:27.653Z,55.59
2018-04-07T08:40:27.600Z,55.33
2018-04-07T08:41:27.595Z,55.56
2018-04-07T08:42:27.621Z,55.56
2018-04-07T08:43:27.604Z,54.94
2018-04-07T08:44:27.599Z,55.42
2018-04-07T08:45:27.591Z,55.46
2018-04-07T08:46:27.791Z,55.46
2018-04-07T08:47:27.613Z,55.3
2018-04-07T08:48:27.597Z,55.12
2018-04-07T08:49:27.593Z,54.76
2018-04-07T08:50:27.596Z,55.35
2018-04-07T08:51:27.623Z,54.7
2018-04-07T08:52:27.604Z,55.21
2018-04-07T08:53:27.607Z,55.17
2018-04-07T08:54:27.605Z,54.99
2018-04-07T08:55:27.593Z,54.92
2018-04-07T08:56:27.597Z,54.58
2018-04-07T08:57:27.609Z,54.24
2018-04-07T08:58:27.597Z,54.82
2018-04-07T08:59:27.600Z,54.69
2018-04-07T09:00:27.609Z,55.32
2018-04-07T09:01:27.605Z,54.75
2018-04-07T09:02:27.679Z,53.99
2018-04-07T09:03:27.615Z,53.37
2018-04-07T09:04:27.606Z,53.95
2018-04-07T09:05:27.611Z,53.06
2018-04-07T09:06:27.604Z,53.16
2018-04-07T09:07:27.603Z,53.65
2018-04-07T09:08:27.602Z,54.05
2018-04-07T09:09:27.609Z,54.44
2018-04-07T09:10:27.610Z,53.66
2018-04-07T09:11:27.604Z,54.29
2018-04-07T09:12:27.603Z,54.05
2018-04-07T09:13:27.605Z,53.74
2018-04-07T09:14:27.612Z,52.34
2018-04-07T09:15:27.612Z,52.88
2018-04-07T09:16:27.630Z,53.3
2018-04-07T09:17:27.599Z,53.39
2018-04-07T09:18:27.611Z,53.78
2018-04-07T09:19:27.658Z,53.89
2018-04-07T09:20:27.626Z,53.09
2018-04-07T09:21:27.647Z,52.88
2018-04-07T09:22:27.612Z,52.72
2018-04-07T09:23:27.617Z,53.38
2018-04-07T09:24:27.630Z,53.48
2018-04-07T09:25:27.615Z,53.06
2018-04-07T09:26:27.645Z,52.9
2018-04-07T09:27:27.612Z,52.58
2018-04-07T09:28:27.617Z,52.1
2018-04-07T09:29:27.620Z,51.81
2018-04-07T09:30:27.616Z,51.62
2018-04-07T09:31:27.643Z,51.62
2018-04-07T09:32:27.696Z,51.96
2018-04-07T09:33:27.669Z,51.79
2018-04-07T09:34:27.628Z,51.54
2018-04-07T09:35:27.610Z,51.89
2018-04-07T09:36:27.649Z,52.13
2018-04-07T09:37:27.611Z,51.47
2018-04-07T09:38:27.611Z,51.38
2018-04-07T09:39:27.622Z,51.27
2018-04-07T09:40:27.616Z,52.23
2018-04-07T09:41:27.650Z,52.24
2018-04-07T09:42:27.613Z,52.17
2018-04-07T09:43:27.612Z,52.04
2018-04-07T09:44:27.631Z,51.44
2018-04-07T09:45:27.623Z,51.13
2018-04-07T09:46:27.624Z,51.81
2018-04-07T09:47:27.634Z,51.47
2018-04-07T09:48:27.620Z,51.61
2018-04-07T09:49:27.618Z,51.38
2018-04-07T09:50:27.629Z,51.28
2018-04-07T09:51:27.906Z,51.19
2018-04-07T09:52:27.835Z,50.41
2018-04-07T09:53:27.620Z,51.76
2018-04-07T09:54:27.626Z,49.36
2018-04-07T09:55:27.628Z,50.36
2018-04-07T09:56:27.662Z,51.17
2018-04-07T09:57:27.626Z,50.71
2018-04-07T09:58:27.625Z,50.32
2018-04-07T09:59:27.643Z,50.18
2018-04-07T10:00:27.634Z,49.14
2018-04-07T10:01:27.723Z,49.05
2018-04-07T10:02:27.625Z,49.27
2018-04-07T10:03:27.663Z,50.47
2018-04-07T10:04:27.959Z,50.39
2018-04-07T10:05:27.624Z,50.02
2018-04-07T10:06:27.645Z,50.16
2018-04-07T10:07:27.635Z,49.59
2018-04-07T10:08:27.639Z,49.14
2018-04-07T10:09:27.632Z,49.23
2018-04-07T10:10:27.631Z,50.15
2018-04-07T10:11:27.662Z,49.1
2018-04-07T10:12:27.639Z,48.56
2018-04-07T10:13:27.778Z,48.84
2018-04-07T10:14:27.627Z,49.12
2018-04-07T10:15:27.640Z,48.92
2018-04-07T10:16:27.654Z,48.83
2018-04-07T10:17:27.634Z,48.13
2018-04-07T10:18:27.640Z,47.13
2018-04-07T10:19:27.640Z,46.96
2018-04-07T10:20:27.648Z,48.8
2018-04-07T10:21:27.858Z,48.82
2018-04-07T10:22:27.643Z,47.37
2018-04-07T10:23:27.643Z,47.78
2018-04-07T10:24:27.640Z,48.35
2018-04-07T10:25:27.638Z,47.48
2018-04-07T10:26:27.668Z,47.3
2018-04-07T10:27:27.642Z,47.33
2018-04-07T10:28:27.782Z,48.38
2018-04-07T10:29:27.769Z,48.37
2018-04-07T10:30:27.755Z,47.89
2018-04-07T10:31:27.802Z,46.97
2018-04-07T10:32:27.768Z,47.44
2018-04-07T10:33:27.725Z,47.08
2018-04-07T10:34:27.737Z,46.71
2018-04-07T10:35:27.828Z,47.04
2018-04-07T10:36:27.779Z,46.96
2018-04-07T10:37:27.718Z,46.73
2018-04-07T10:38:27.679Z,47.04
2018-04-07T10:39:27.732Z,46.81
2018-04-07T10:40:27.759Z,46.92
2018-04-07T10:41:27.777Z,47.49
2018-04-07T10:42:27.838Z,47.2
2018-04-07T10:43:27.766Z,46.8
2018-04-07T10:44:27.751Z,46.13
2018-04-07T10:45:27.740Z,46.01
2018-04-07T10:46:27.792Z,46.78
2018-04-07T10:47:27.695Z,46.48
2018-04-07T10:48:27.775Z,46.68
2018-04-07T10:49:27.788Z,45.97
2018-04-07T10:50:27.714Z,45.71
2018-04-07T10:51:27.734Z,46.37
2018-04-07T10:52:27.757Z,45.92
2018-04-07T10:53:27.744Z,46.56
2018-04-07T10:54:27.767Z,45.63
2018-04-07T10:55:27.706Z,46.18
2018-04-07T10:56:27.760Z,45.12
2018-04-07T10:57:27.731Z,45.66
2018-04-07T10:58:27.691Z,45.54
2018-04-07T10:59:27.779Z,44.53
2018-04-07T11:00:27.785Z,46.02
2018-04-07T11:01:27.797Z,45.51
2018-04-07T11:02:27.744Z,45.55
2018-04-07T11:03:27.828Z,44.94
2018-04-07T11:04:27.761Z,45.45
2018-04-07T11:05:27.752Z,44.06
2018-04-07T11:06:27.848Z,44.18
2018-04-07T11:07:27.707Z,44.95
2018-04-07T11:08:27.760Z,44.51
2018-04-07T11:09:27.869Z,44.74
2018-04-07T11:10:27.812Z,44.15
2018-04-07T11:11:27.827Z,43.42
2018-04-07T11:12:27.788Z,44.65
2018-04-07T11:13:27.817Z,43.59
2018-04-07T11:14:27.798Z,44.22
2018-04-07T11:15:27.728Z,44.14
2018-04-07T11:16:27.825Z,43.91
2018-04-07T11:17:27.792Z,43.37
2018-04-07T11:18:27.755Z,43.12
2018-04-07T11:19:27.786Z,42.52
2018-04-07T11:20:27.830Z,42.63
2018-04-07T11:21:27.817Z,42.14
2018-04-07T11:22:27.750Z,41.7
2018-04-07T11:23:27.758Z,42.65
2018-04-07T11:24:27.769Z,41.33
2018-04-07T11:25:27.785Z,43.04
2018-04-07T11:26:27.782Z,42.76
2018-04-07T11:27:27.823Z,42.98
2018-04-07T11:28:27.765Z,42.33
2018-04-07T11:29:27.784Z,42.28
2018-04-07T11:30:27.675Z,41.96
2018-04-07T11:31:27.705Z,41.94
2018-04-07T11:32:27.665Z,42.47
2018-04-07T11:33:27.671Z,41.32
2018-04-07T11:34:27.676Z,41.68
2018-04-07T11:35:27.717Z,40.47
2018-04-07T11:36:27.673Z,41.44
2018-04-07T11:37:27.796Z,40.37
2018-04-07T11:38:27.673Z,39.83
2018-04-07T11:39:27.677Z,41.42
2018-04-07T11:40:27.680Z,41.74
2018-04-07T11:41:27.688Z,41.73
2018-04-07T11:42:27.716Z,40.74
2018-04-07T11:43:27.683Z,40.75
2018-04-07T11:44:27.681Z,40.7
2018-04-07T11:45:27.680Z,40.73
2018-04-07T11:46:27.681Z,40.37
2018-04-07T11:47:27.729Z,41.12
2018-04-07T11:48:27.677Z,41.07
2018-04-07T11:49:27.678Z,39.32
2018-04-07T11:50:27.675Z,38.87
2018-04-07T11:51:27.680Z,39.6
2018-04-07T11:52:27.724Z,40.4
2018-04-07T11:53:27.688Z,40.84
2018-04-07T11:54:27.680Z,40.83
2018-04-07T11:55:27.681Z,39.68
2018-04-07T11:56:27.690Z,40.07
2018-04-07T11:57:27.692Z,40.41
2018-04-07T11:58:27.713Z,40.52
2018-04-07T11:59:27.700Z,40.24
2018-04-07T12:00:27.692Z,40.75
2018-04-07T12:01:27.704Z,40.62
2018-04-07T12:02:27.813Z,40.19
2018-04-07T12:03:27.713Z,39.96
2018-04-07T12:04:27.699Z,39.6
2018-04-07T12:05:27.727Z,39.82
2018-04-07T12:06:27.692Z,40.41
2018-04-07T12:07:27.689Z,40.37
2018-04-07T12:08:27.975Z,39.96
2018-04-07T12:09:27.692Z,39.34
2018-04-07T12:10:27.688Z,40.09
2018-04-07T12:11:27.733Z,40.39
2018-04-07T12:12:27.726Z,40.55
2018-04-07T12:13:27.749Z,40.37
2018-04-07T12:14:27.725Z,40.48
2018-04-07T12:15:27.716Z,39.92
2018-04-07T12:16:27.709Z,39.22
2018-04-07T12:17:27.707Z,39.55
2018-04-07T12:18:27.728Z,39.66
2018-04-07T12:19:27.694Z,39.23
2018-04-07T12:20:27.696Z,38.73
2018-04-07T12:21:27.707Z,38.58
2018-04-07T12:22:27.723Z,38.2
2018-04-07T12:23:28.044Z,38.43
2018-04-07T12:24:27.711Z,38.76
2018-04-07T12:25:27.712Z,38.55
2018-04-07T12:26:27.736Z,39.02
2018-04-07T12:27:27.737Z,38.99
2018-04-07T12:28:27.729Z,38.76
2018-04-07T12:29:27.701Z,37.91
2018-04-07T12:30:27.711Z,38.35
2018-04-07T12:31:27.706Z,38.72
2018-04-07T12:32:27.704Z,38.73
2018-04-07T12:33:27.733Z,38.39
2018-04-07T12:34:27.694Z,39.16
2018-04-07T12:35:27.725Z,39.24
2018-04-07T12:36:27.699Z,37.81
2018-04-07T12:37:27.702Z,38.08
2018-04-07T12:38:27.736Z,38.16
2018-04-07T12:39:27.809Z,37.88
2018-04-07T12:40:27.700Z,38.17
2018-04-07T12:41:27.730Z,38.63
2018-04-07T12:42:27.721Z,38.66
2018-04-07T12:43:27.716Z,39.17
2018-04-07T12:44:27.721Z,39.29
2018-04-07T12:45:27.722Z,38.75
2018-04-07T12:46:27.704Z,38.23
2018-04-07T12:47:27.746Z,38.39
2018-04-07T12:48:27.742Z,38.33
2018-04-07T12:49:27.714Z,37.73
2018-04-07T12:50:27.715Z,37.61
2018-04-07T12:51:27.724Z,37.65
2018-04-07T12:52:27.715Z,37.31
2018-04-07T12:53:27.794Z,37.24
2018-04-07T12:54:27.724Z,37.41